Terminal Aerodrome Forecast
Issued by NWS

Home | Current Version | Previous Version | Text Only | Print | Product List | Glossary Off
Versions: 1 2 3 4 5 6 7 8 9 10 11 12 13 14 15 16 17 18 19 20 21

000
FTUS43 KMPX 211100
TAFAXN
TAF
KAXN 211130Z 2112/2212 13008KT P6SM VCSH FEW006 BKN045
     FM211400 14007KT P6SM SCT040 BKN100
     FM212100 33005KT P6SM SKC
     FM220700 34005KT 5SM BR SCT003
     FM220900 VRB03KT 2SM BR OVC003=

USA.gov is the U.S. government's official web portal to all federal, state and local government web resources and services.